sensor_id;sensor_type;location;lat;lon;timestamp;P1;durP1;ratioP1;P2;durP2;ratioP2
4646;SDS011;2336;47.822;7.564;2023-06-22T00:00:50;7.77;;;5.07;;
4646;SDS011;2336;47.822;7.564;2023-06-22T00:03:17;7.57;;;6.20;;
4646;SDS011;2336;47.822;7.564;2023-06-22T00:05:45;21.80;;;8.10;;
4646;SDS011;2336;47.822;7.564;2023-06-22T00:08:12;18.40;;;8.20;;
4646;SDS011;2336;47.822;7.564;2023-06-22T00:10:39;7.37;;;6.70;;
4646;SDS011;2336;47.822;7.564;2023-06-22T00:13:06;9.90;;;6.17;;
4646;SDS011;2336;47.822;7.564;2023-06-22T00:15:34;10.77;;;7.03;;
4646;SDS011;2336;47.822;7.564;2023-06-22T00:18:02;15.27;;;7.57;;
4646;SDS011;2336;47.822;7.564;2023-06-22T00:20:29;13.43;;;7.47;;
4646;SDS011;2336;47.822;7.564;2023-06-22T00:22:56;8.20;;;6.63;;
4646;SDS011;2336;47.822;7.564;2023-06-22T00:25:24;12.03;;;6.80;;
4646;SDS011;2336;47.822;7.564;2023-06-22T00:27:51;13.93;;;5.80;;
4646;SDS011;2336;47.822;7.564;2023-06-22T00:30:18;10.40;;;6.67;;
4646;SDS011;2336;47.822;7.564;2023-06-22T00:32:45;7.37;;;5.80;;
4646;SDS011;2336;47.822;7.564;2023-06-22T00:35:13;12.87;;;6.43;;
4646;SDS011;2336;47.822;7.564;2023-06-22T00:37:40;18.97;;;7.93;;
4646;SDS011;2336;47.822;7.564;2023-06-22T00:40:07;20.80;;;8.00;;
4646;SDS011;2336;47.822;7.564;2023-06-22T00:42:36;13.83;;;9.00;;
4646;SDS011;2336;47.822;7.564;2023-06-22T00:45:04;10.77;;;9.00;;
4646;SDS011;2336;47.822;7.564;2023-06-22T00:47:32;11.17;;;9.47;;
4646;SDS011;2336;47.822;7.564;2023-06-22T00:50:01;11.60;;;10.40;;
4646;SDS011;2336;47.822;7.564;2023-06-22T00:52:33;14.50;;;13.00;;
4646;SDS011;2336;47.822;7.564;2023-06-22T00:55:00;14.43;;;12.87;;
4646;SDS011;2336;47.822;7.564;2023-06-22T00:57:28;15.30;;;13.80;;
4646;SDS011;2336;47.822;7.564;2023-06-22T00:59:56;13.27;;;12.10;;
4646;SDS011;2336;47.822;7.564;2023-06-22T01:02:22;19.20;;;15.87;;
4646;SDS011;2336;47.822;7.564;2023-06-22T01:04:49;16.57;;;14.87;;
4646;SDS011;2336;47.822;7.564;2023-06-22T01:07:18;16.00;;;13.77;;
4646;SDS011;2336;47.822;7.564;2023-06-22T01:09:59;13.80;;;12.60;;
4646;SDS011;2336;47.822;7.564;2023-06-22T01:12:30;13.90;;;12.40;;
4646;SDS011;2336;47.822;7.564;2023-06-22T01:15:02;14.60;;;13.10;;
4646;SDS011;2336;47.822;7.564;2023-06-22T01:17:35;13.00;;;11.87;;
4646;SDS011;2336;47.822;7.564;2023-06-22T01:20:05;12.10;;;11.00;;
4646;SDS011;2336;47.822;7.564;2023-06-22T01:22:41;14.03;;;10.93;;
4646;SDS011;2336;47.822;7.564;2023-06-22T01:25:19;10.80;;;9.70;;
4646;SDS011;2336;47.822;7.564;2023-06-22T01:27:53;9.73;;;8.90;;
4646;SDS011;2336;47.822;7.564;2023-06-22T01:30:30;11.93;;;9.67;;
4646;SDS011;2336;47.822;7.564;2023-06-22T01:32:59;12.20;;;11.00;;
4646;SDS011;2336;47.822;7.564;2023-06-22T01:35:27;11.80;;;10.60;;
4646;SDS011;2336;47.822;7.564;2023-06-22T01:37:55;10.30;;;9.37;;
4646;SDS011;2336;47.822;7.564;2023-06-22T01:40:22;13.10;;;10.07;;
4646;SDS011;2336;47.822;7.564;2023-06-22T01:42:50;16.67;;;14.13;;
4646;SDS011;2336;47.822;7.564;2023-06-22T01:45:17;14.33;;;11.97;;
4646;SDS011;2336;47.822;7.564;2023-06-22T01:47:46;12.33;;;11.23;;
4646;SDS011;2336;47.822;7.564;2023-06-22T01:50:13;14.10;;;10.80;;
4646;SDS011;2336;47.822;7.564;2023-06-22T01:52:40;13.70;;;10.20;;
4646;SDS011;2336;47.822;7.564;2023-06-22T01:55:07;12.77;;;9.20;;
4646;SDS011;2336;47.822;7.564;2023-06-22T01:57:34;14.63;;;9.70;;
4646;SDS011;2336;47.822;7.564;2023-06-22T02:00:03;13.53;;;9.33;;
4646;SDS011;2336;47.822;7.564;2023-06-22T02:02:33;11.00;;;8.83;;
4646;SDS011;2336;47.822;7.564;2023-06-22T02:05:09;11.67;;;8.20;;
4646;SDS011;2336;47.822;7.564;2023-06-22T02:07:39;10.50;;;8.10;;
4646;SDS011;2336;47.822;7.564;2023-06-22T02:10:10;9.40;;;8.07;;
4646;SDS011;2336;47.822;7.564;2023-06-22T02:12:41;10.33;;;7.70;;
4646;SDS011;2336;47.822;7.564;2023-06-22T02:15:10;11.63;;;7.90;;
4646;SDS011;2336;47.822;7.564;2023-06-22T02:17:39;7.73;;;7.00;;
4646;SDS011;2336;47.822;7.564;2023-06-22T02:20:13;8.70;;;7.90;;
4646;SDS011;2336;47.822;7.564;2023-06-22T02:22:40;11.03;;;8.30;;
4646;SDS011;2336;47.822;7.564;2023-06-22T02:25:07;8.07;;;7.37;;
4646;SDS011;2336;47.822;7.564;2023-06-22T02:27:34;9.40;;;8.50;;
4646;SDS011;2336;47.822;7.564;2023-06-22T02:30:01;10.43;;;8.10;;
4646;SDS011;2336;47.822;7.564;2023-06-22T02:32:28;12.23;;;7.60;;
4646;SDS011;2336;47.822;7.564;2023-06-22T02:34:55;7.93;;;7.17;;
4646;SDS011;2336;47.822;7.564;2023-06-22T02:37:23;7.97;;;7.27;;
4646;SDS011;2336;47.822;7.564;2023-06-22T02:39:50;8.37;;;7.73;;
4646;SDS011;2336;47.822;7.564;2023-06-22T02:42:17;9.53;;;8.63;;
4646;SDS011;2336;47.822;7.564;2023-06-22T02:44:45;8.50;;;7.80;;
4646;SDS011;2336;47.822;7.564;2023-06-22T02:47:12;8.07;;;7.47;;
4646;SDS011;2336;47.822;7.564;2023-06-22T02:49:39;14.67;;;9.70;;
4646;SDS011;2336;47.822;7.564;2023-06-22T02:52:06;12.67;;;9.07;;
4646;SDS011;2336;47.822;7.564;2023-06-22T02:54:35;12.97;;;9.33;;
4646;SDS011;2336;47.822;7.564;2023-06-22T02:57:01;17.60;;;8.40;;
4646;SDS011;2336;47.822;7.564;2023-06-22T02:59:28;8.80;;;7.70;;
4646;SDS011;2336;47.822;7.564;2023-06-22T03:01:55;10.00;;;9.03;;
4646;SDS011;2336;47.822;7.564;2023-06-22T03:04:22;14.13;;;9.30;;
4646;SDS011;2336;47.822;7.564;2023-06-22T03:06:48;10.00;;;8.20;;
4646;SDS011;2336;47.822;7.564;2023-06-22T03:09:16;10.87;;;7.53;;
4646;SDS011;2336;47.822;7.564;2023-06-22T03:11:44;7.80;;;7.20;;
4646;SDS011;2336;47.822;7.564;2023-06-22T03:14:11;7.60;;;6.90;;
4646;SDS011;2336;47.822;7.564;2023-06-22T03:16:38;8.57;;;7.70;;
4646;SDS011;2336;47.822;7.564;2023-06-22T03:19:05;7.53;;;6.90;;
4646;SDS011;2336;47.822;7.564;2023-06-22T03:21:32;8.40;;;7.60;;
4646;SDS011;2336;47.822;7.564;2023-06-22T03:23:58;7.43;;;6.73;;
4646;SDS011;2336;47.822;7.564;2023-06-22T03:26:25;8.80;;;7.27;;
4646;SDS011;2336;47.822;7.564;2023-06-22T03:28:53;11.57;;;7.07;;
4646;SDS011;2336;47.822;7.564;2023-06-22T03:31:20;8.43;;;7.53;;
4646;SDS011;2336;47.822;7.564;2023-06-22T03:33:47;9.43;;;8.23;;
4646;SDS011;2336;47.822;7.564;2023-06-22T03:36:14;9.23;;;8.23;;
4646;SDS011;2336;47.822;7.564;2023-06-22T03:38:43;13.33;;;8.80;;
4646;SDS011;2336;47.822;7.564;2023-06-22T03:41:10;7.70;;;7.10;;
4646;SDS011;2336;47.822;7.564;2023-06-22T03:43:37;11.13;;;8.13;;
4646;SDS011;2336;47.822;7.564;2023-06-22T03:46:05;13.27;;;8.40;;
4646;SDS011;2336;47.822;7.564;2023-06-22T03:48:32;9.80;;;8.00;;
4646;SDS011;2336;47.822;7.564;2023-06-22T03:50:59;12.47;;;7.73;;
4646;SDS011;2336;47.822;7.564;2023-06-22T03:53:27;11.90;;;7.90;;
4646;SDS011;2336;47.822;7.564;2023-06-22T03:55:55;12.70;;;8.20;;
4646;SDS011;2336;47.822;7.564;2023-06-22T03:58:22;10.37;;;9.40;;
4646;SDS011;2336;47.822;7.564;2023-06-22T04:00:49;8.20;;;7.60;;
4646;SDS011;2336;47.822;7.564;2023-06-22T04:03:19;9.20;;;8.40;;
4646;SDS011;2336;47.822;7.564;2023-06-22T04:05:46;13.27;;;9.37;;
4646;SDS011;2336;47.822;7.564;2023-06-22T04:08:13;9.87;;;8.83;;
4646;SDS011;2336;47.822;7.564;2023-06-22T04:10:40;9.53;;;8.63;;
4646;SDS011;2336;47.822;7.564;2023-06-22T04:13:07;15.73;;;11.80;;
4646;SDS011;2336;47.822;7.564;2023-06-22T04:15:34;11.87;;;10.70;;
4646;SDS011;2336;47.822;7.564;2023-06-22T04:18:00;11.90;;;10.30;;
4646;SDS011;2336;47.822;7.564;2023-06-22T04:20:28;10.73;;;9.40;;
4646;SDS011;2336;47.822;7.564;2023-06-22T04:22:57;16.77;;;11.90;;
4646;SDS011;2336;47.822;7.564;2023-06-22T04:25:24;14.07;;;10.97;;
4646;SDS011;2336;47.822;7.564;2023-06-22T04:27:50;10.43;;;9.10;;
4646;SDS011;2336;47.822;7.564;2023-06-22T04:30:17;20.63;;;13.63;;
4646;SDS011;2336;47.822;7.564;2023-06-22T04:32:44;12.07;;;11.00;;
4646;SDS011;2336;47.822;7.564;2023-06-22T04:35:21;15.60;;;10.90;;
4646;SDS011;2336;47.822;7.564;2023-06-22T04:37:49;13.07;;;11.63;;
4646;SDS011;2336;47.822;7.564;2023-06-22T04:40:20;12.77;;;11.47;;
4646;SDS011;2336;47.822;7.564;2023-06-22T04:42:47;15.87;;;12.70;;
4646;SDS011;2336;47.822;7.564;2023-06-22T04:45:18;16.77;;;13.33;;
4646;SDS011;2336;47.822;7.564;2023-06-22T04:47:45;14.03;;;11.97;;
4646;SDS011;2336;47.822;7.564;2023-06-22T04:50:12;15.50;;;12.83;;
4646;SDS011;2336;47.822;7.564;2023-06-22T04:52:38;15.80;;;11.93;;
4646;SDS011;2336;47.822;7.564;2023-06-22T04:55:07;16.27;;;11.90;;
4646;SDS011;2336;47.822;7.564;2023-06-22T04:57:34;12.17;;;10.97;;
4646;SDS011;2336;47.822;7.564;2023-06-22T05:00:05;11.93;;;10.03;;
4646;SDS011;2336;47.822;7.564;2023-06-22T05:02:42;12.33;;;11.17;;
4646;SDS011;2336;47.822;7.564;2023-06-22T05:05:11;16.47;;;11.30;;
4646;SDS011;2336;47.822;7.564;2023-06-22T05:07:39;11.20;;;10.30;;
4646;SDS011;2336;47.822;7.564;2023-06-22T05:10:10;11.80;;;10.70;;
4646;SDS011;2336;47.822;7.564;2023-06-22T05:12:37;12.50;;;11.13;;
4646;SDS011;2336;47.822;7.564;2023-06-22T05:15:05;16.57;;;12.73;;
4646;SDS011;2336;47.822;7.564;2023-06-22T05:17:33;13.77;;;12.47;;
4646;SDS011;2336;47.822;7.564;2023-06-22T05:19:59;12.83;;;11.50;;
4646;SDS011;2336;47.822;7.564;2023-06-22T05:22:26;13.93;;;12.57;;
4646;SDS011;2336;47.822;7.564;2023-06-22T05:24:53;17.43;;;15.63;;
4646;SDS011;2336;47.822;7.564;2023-06-22T05:27:21;14.87;;;13.37;;
4646;SDS011;2336;47.822;7.564;2023-06-22T05:29:48;19.60;;;16.03;;
4646;SDS011;2336;47.822;7.564;2023-06-22T05:32:14;13.73;;;12.33;;
4646;SDS011;2336;47.822;7.564;2023-06-22T05:34:41;13.83;;;11.80;;
4646;SDS011;2336;47.822;7.564;2023-06-22T05:37:08;14.23;;;12.80;;
4646;SDS011;2336;47.822;7.564;2023-06-22T05:39:35;17.77;;;13.30;;
4646;SDS011;2336;47.822;7.564;2023-06-22T05:42:03;18.73;;;12.80;;
4646;SDS011;2336;47.822;7.564;2023-06-22T05:44:32;17.70;;;13.50;;
4646;SDS011;2336;47.822;7.564;2023-06-22T05:46:59;15.53;;;14.10;;
4646;SDS011;2336;47.822;7.564;2023-06-22T05:49:26;15.33;;;13.80;;
4646;SDS011;2336;47.822;7.564;2023-06-22T05:51:54;18.60;;;16.63;;
4646;SDS011;2336;47.822;7.564;2023-06-22T05:54:21;18.77;;;16.87;;
4646;SDS011;2336;47.822;7.564;2023-06-22T05:56:48;21.30;;;16.90;;
4646;SDS011;2336;47.822;7.564;2023-06-22T05:59:15;17.97;;;15.77;;
4646;SDS011;2336;47.822;7.564;2023-06-22T06:01:43;19.00;;;17.03;;
4646;SDS011;2336;47.822;7.564;2023-06-22T06:04:09;22.87;;;18.20;;
4646;SDS011;2336;47.822;7.564;2023-06-22T06:06:36;19.23;;;17.23;;
4646;SDS011;2336;47.822;7.564;2023-06-22T06:09:03;21.40;;;19.30;;
4646;SDS011;2336;47.822;7.564;2023-06-22T06:11:30;20.43;;;18.47;;
4646;SDS011;2336;47.822;7.564;2023-06-22T06:13:57;20.83;;;18.80;;
4646;SDS011;2336;47.822;7.564;2023-06-22T06:16:23;18.83;;;17.07;;
4646;SDS011;2336;47.822;7.564;2023-06-22T06:18:51;19.20;;;17.50;;
4646;SDS011;2336;47.822;7.564;2023-06-22T06:21:20;20.80;;;18.70;;
4646;SDS011;2336;47.822;7.564;2023-06-22T06:23:47;19.50;;;17.60;;
4646;SDS011;2336;47.822;7.564;2023-06-22T06:26:14;17.63;;;15.93;;
4646;SDS011;2336;47.822;7.564;2023-06-22T06:28:42;18.43;;;16.63;;
4646;SDS011;2336;47.822;7.564;2023-06-22T06:31:09;20.00;;;18.10;;
4646;SDS011;2336;47.822;7.564;2023-06-22T06:33:37;19.00;;;17.07;;
4646;SDS011;2336;47.822;7.564;2023-06-22T06:36:05;18.53;;;16.57;;
4646;SDS011;2336;47.822;7.564;2023-06-22T06:38:33;19.50;;;17.57;;
4646;SDS011;2336;47.822;7.564;2023-06-22T06:41:00;20.60;;;18.57;;
4646;SDS011;2336;47.822;7.564;2023-06-22T06:43:27;21.47;;;18.50;;
4646;SDS011;2336;47.822;7.564;2023-06-22T06:45:53;17.83;;;16.10;;
4646;SDS011;2336;47.822;7.564;2023-06-22T06:48:20;19.47;;;17.50;;
4646;SDS011;2336;47.822;7.564;2023-06-22T06:50:47;24.33;;;15.80;;
4646;SDS011;2336;47.822;7.564;2023-06-22T06:53:15;18.70;;;16.80;;
4646;SDS011;2336;47.822;7.564;2023-06-22T06:55:41;22.33;;;15.90;;
4646;SDS011;2336;47.822;7.564;2023-06-22T06:58:10;17.97;;;16.17;;
4646;SDS011;2336;47.822;7.564;2023-06-22T07:00:38;22.87;;;17.47;;
4646;SDS011;2336;47.822;7.564;2023-06-22T07:03:05;19.97;;;16.97;;
4646;SDS011;2336;47.822;7.564;2023-06-22T07:05:32;18.90;;;17.10;;
4646;SDS011;2336;47.822;7.564;2023-06-22T07:07:58;21.50;;;19.13;;
4646;SDS011;2336;47.822;7.564;2023-06-22T07:10:26;22.40;;;19.67;;
4646;SDS011;2336;47.822;7.564;2023-06-22T07:12:54;20.27;;;18.10;;
4646;SDS011;2336;47.822;7.564;2023-06-22T07:15:22;22.83;;;19.67;;
4646;SDS011;2336;47.822;7.564;2023-06-22T07:17:48;21.60;;;19.27;;
4646;SDS011;2336;47.822;7.564;2023-06-22T07:20:15;20.17;;;17.93;;
4646;SDS011;2336;47.822;7.564;2023-06-22T07:22:42;26.63;;;18.13;;
4646;SDS011;2336;47.822;7.564;2023-06-22T07:25:10;19.80;;;17.87;;
4646;SDS011;2336;47.822;7.564;2023-06-22T07:27:42;17.03;;;15.37;;
4646;SDS011;2336;47.822;7.564;2023-06-22T07:30:11;21.50;;;16.97;;
4646;SDS011;2336;47.822;7.564;2023-06-22T07:32:39;20.73;;;15.63;;
4646;SDS011;2336;47.822;7.564;2023-06-22T07:35:06;61.37;;;39.20;;
4646;SDS011;2336;47.822;7.564;2023-06-22T07:37:33;169.87;;;100.50;;
4646;SDS011;2336;47.822;7.564;2023-06-22T07:40:00;60.63;;;40.13;;
4646;SDS011;2336;47.822;7.564;2023-06-22T07:42:29;41.37;;;27.90;;
4646;SDS011;2336;47.822;7.564;2023-06-22T07:44:59;27.20;;;19.10;;
4646;SDS011;2336;47.822;7.564;2023-06-22T07:47:27;23.70;;;15.40;;
4646;SDS011;2336;47.822;7.564;2023-06-22T07:49:54;18.13;;;13.87;;
4646;SDS011;2336;47.822;7.564;2023-06-22T07:52:22;19.43;;;14.57;;
4646;SDS011;2336;47.822;7.564;2023-06-22T07:54:49;17.20;;;12.73;;
4646;SDS011;2336;47.822;7.564;2023-06-22T07:57:16;16.47;;;14.60;;
4646;SDS011;2336;47.822;7.564;2023-06-22T07:59:43;21.13;;;13.60;;
4646;SDS011;2336;47.822;7.564;2023-06-22T08:02:11;15.43;;;12.70;;
4646;SDS011;2336;47.822;7.564;2023-06-22T08:04:38;13.80;;;12.37;;
4646;SDS011;2336;47.822;7.564;2023-06-22T08:07:06;25.47;;;16.60;;
4646;SDS011;2336;47.822;7.564;2023-06-22T08:09:32;34.57;;;23.70;;
4646;SDS011;2336;47.822;7.564;2023-06-22T08:11:59;17.33;;;14.43;;
4646;SDS011;2336;47.822;7.564;2023-06-22T08:14:26;17.40;;;11.10;;
4646;SDS011;2336;47.822;7.564;2023-06-22T08:16:53;13.10;;;10.20;;
4646;SDS011;2336;47.822;7.564;2023-06-22T08:19:21;13.83;;;9.90;;
4646;SDS011;2336;47.822;7.564;2023-06-22T08:21:48;8.20;;;7.40;;
4646;SDS011;2336;47.822;7.564;2023-06-22T08:24:15;15.20;;;9.20;;
4646;SDS011;2336;47.822;7.564;2023-06-22T08:26:42;8.80;;;7.50;;
4646;SDS011;2336;47.822;7.564;2023-06-22T08:29:08;10.20;;;7.40;;
4646;SDS011;2336;47.822;7.564;2023-06-22T08:31:35;12.23;;;7.77;;
4646;SDS011;2336;47.822;7.564;2023-06-22T08:34:02;7.80;;;7.00;;
4646;SDS011;2336;47.822;7.564;2023-06-22T08:36:30;11.10;;;7.17;;
4646;SDS011;2336;47.822;7.564;2023-06-22T08:38:57;9.80;;;7.40;;
4646;SDS011;2336;47.822;7.564;2023-06-22T08:41:27;10.63;;;8.17;;
4646;SDS011;2336;47.822;7.564;2023-06-22T08:43:54;12.37;;;7.10;;
4646;SDS011;2336;47.822;7.564;2023-06-22T08:46:22;9.80;;;7.50;;
4646;SDS011;2336;47.822;7.564;2023-06-22T08:48:55;9.73;;;8.63;;
4646;SDS011;2336;47.822;7.564;2023-06-22T08:51:22;12.93;;;7.33;;
4646;SDS011;2336;47.822;7.564;2023-06-22T08:53:50;10.23;;;8.40;;
4646;SDS011;2336;47.822;7.564;2023-06-22T08:56:16;11.00;;;8.33;;
4646;SDS011;2336;47.822;7.564;2023-06-22T08:58:43;17.13;;;8.47;;
4646;SDS011;2336;47.822;7.564;2023-06-22T09:01:10;10.70;;;7.33;;
4646;SDS011;2336;47.822;7.564;2023-06-22T09:03:37;7.23;;;6.60;;
4646;SDS011;2336;47.822;7.564;2023-06-22T09:06:04;15.23;;;8.13;;
4646;SDS011;2336;47.822;7.564;2023-06-22T09:08:30;9.57;;;8.57;;
4646;SDS011;2336;47.822;7.564;2023-06-22T09:10:59;10.63;;;8.60;;
4646;SDS011;2336;47.822;7.564;2023-06-22T09:13:25;10.07;;;7.90;;
4646;SDS011;2336;47.822;7.564;2023-06-22T09:15:52;7.57;;;6.87;;
4646;SDS011;2336;47.822;7.564;2023-06-22T09:18:19;13.20;;;9.33;;
4646;SDS011;2336;47.822;7.564;2023-06-22T09:20:45;9.37;;;8.40;;
4646;SDS011;2336;47.822;7.564;2023-06-22T09:23:12;11.60;;;8.43;;
4646;SDS011;2336;47.822;7.564;2023-06-22T09:25:39;8.13;;;7.40;;
4646;SDS011;2336;47.822;7.564;2023-06-22T09:28:07;7.53;;;6.93;;
4646;SDS011;2336;47.822;7.564;2023-06-22T09:30:34;13.60;;;9.70;;
4646;SDS011;2336;47.822;7.564;2023-06-22T09:33:01;11.50;;;8.37;;
4646;SDS011;2336;47.822;7.564;2023-06-22T09:35:27;14.33;;;8.60;;
4646;SDS011;2336;47.822;7.564;2023-06-22T09:37:54;11.83;;;8.20;;
4646;SDS011;2336;47.822;7.564;2023-06-22T09:40:21;10.50;;;7.80;;
4646;SDS011;2336;47.822;7.564;2023-06-22T09:42:47;11.07;;;9.10;;
4646;SDS011;2336;47.822;7.564;2023-06-22T09:45:15;10.63;;;8.40;;
4646;SDS011;2336;47.822;7.564;2023-06-22T09:47:42;9.23;;;8.33;;
4646;SDS011;2336;47.822;7.564;2023-06-22T09:50:09;11.20;;;8.43;;
4646;SDS011;2336;47.822;7.564;2023-06-22T09:52:36;13.77;;;7.10;;
4646;SDS011;2336;47.822;7.564;2023-06-22T09:55:03;10.50;;;7.93;;
4646;SDS011;2336;47.822;7.564;2023-06-22T09:57:31;12.03;;;8.20;;
4646;SDS011;2336;47.822;7.564;2023-06-22T09:59:57;8.17;;;7.20;;
4646;SDS011;2336;47.822;7.564;2023-06-22T10:02:25;9.43;;;7.47;;
4646;SDS011;2336;47.822;7.564;2023-06-22T10:04:52;11.50;;;8.33;;
4646;SDS011;2336;47.822;7.564;2023-06-22T10:07:19;15.23;;;8.70;;
4646;SDS011;2336;47.822;7.564;2023-06-22T10:09:45;8.87;;;8.03;;
4646;SDS011;2336;47.822;7.564;2023-06-22T10:12:12;8.43;;;7.57;;
4646;SDS011;2336;47.822;7.564;2023-06-22T10:14:39;8.67;;;7.33;;
4646;SDS011;2336;47.822;7.564;2023-06-22T10:17:05;9.33;;;6.80;;
4646;SDS011;2336;47.822;7.564;2023-06-22T10:19:34;11.27;;;7.63;;
4646;SDS011;2336;47.822;7.564;2023-06-22T10:22:02;8.60;;;7.10;;
4646;SDS011;2336;47.822;7.564;2023-06-22T10:24:30;13.30;;;9.57;;
4646;SDS011;2336;47.822;7.564;2023-06-22T10:26:56;10.87;;;9.20;;
4646;SDS011;2336;47.822;7.564;2023-06-22T10:29:23;12.10;;;7.77;;
4646;SDS011;2336;47.822;7.564;2023-06-22T10:31:50;11.37;;;8.00;;
4646;SDS011;2336;47.822;7.564;2023-06-22T10:34:17;12.53;;;8.50;;
4646;SDS011;2336;47.822;7.564;2023-06-22T10:36:45;17.90;;;8.87;;
4646;SDS011;2336;47.822;7.564;2023-06-22T10:39:13;11.20;;;7.80;;
4646;SDS011;2336;47.822;7.564;2023-06-22T10:41:40;11.63;;;8.43;;
4646;SDS011;2336;47.822;7.564;2023-06-22T10:44:07;13.53;;;8.80;;
4646;SDS011;2336;47.822;7.564;2023-06-22T10:46:33;12.23;;;9.20;;
4646;SDS011;2336;47.822;7.564;2023-06-22T10:49:00;9.03;;;7.70;;
4646;SDS011;2336;47.822;7.564;2023-06-22T10:51:27;8.77;;;7.60;;
4646;SDS011;2336;47.822;7.564;2023-06-22T10:53:55;8.60;;;6.33;;
4646;SDS011;2336;47.822;7.564;2023-06-22T10:56:22;16.77;;;7.77;;
4646;SDS011;2336;47.822;7.564;2023-06-22T10:58:48;14.97;;;9.70;;
4646;SDS011;2336;47.822;7.564;2023-06-22T11:01:15;11.97;;;7.30;;
4646;SDS011;2336;47.822;7.564;2023-06-22T11:03:42;10.97;;;8.00;;
4646;SDS011;2336;47.822;7.564;2023-06-22T11:06:09;9.00;;;8.10;;
4646;SDS011;2336;47.822;7.564;2023-06-22T11:08:35;13.53;;;9.20;;
4646;SDS011;2336;47.822;7.564;2023-06-22T11:11:03;9.50;;;7.90;;
4646;SDS011;2336;47.822;7.564;2023-06-22T11:13:30;7.77;;;7.00;;
4646;SDS011;2336;47.822;7.564;2023-06-22T11:15:57;13.80;;;8.67;;
4646;SDS011;2336;47.822;7.564;2023-06-22T11:18:23;9.03;;;7.67;;
4646;SDS011;2336;47.822;7.564;2023-06-22T11:20:50;12.50;;;9.13;;
4646;SDS011;2336;47.822;7.564;2023-06-22T11:23:18;13.30;;;8.20;;
4646;SDS011;2336;47.822;7.564;2023-06-22T11:25:45;11.83;;;8.80;;
4646;SDS011;2336;47.822;7.564;2023-06-22T11:28:13;10.10;;;8.17;;
4646;SDS011;2336;47.822;7.564;2023-06-22T11:30:39;19.53;;;8.67;;
4646;SDS011;2336;47.822;7.564;2023-06-22T11:33:06;14.63;;;8.27;;
4646;SDS011;2336;47.822;7.564;2023-06-22T11:35:33;8.20;;;7.53;;
4646;SDS011;2336;47.822;7.564;2023-06-22T11:37:59;10.93;;;7.73;;
4646;SDS011;2336;47.822;7.564;2023-06-22T11:40:28;11.70;;;8.50;;
4646;SDS011;2336;47.822;7.564;2023-06-22T11:42:55;11.90;;;7.50;;
4646;SDS011;2336;47.822;7.564;2023-06-22T11:45:23;10.67;;;7.03;;
4646;SDS011;2336;47.822;7.564;2023-06-22T11:47:50;9.87;;;7.87;;
4646;SDS011;2336;47.822;7.564;2023-06-22T11:50:16;10.27;;;7.67;;
4646;SDS011;2336;47.822;7.564;2023-06-22T11:52:43;15.70;;;7.93;;
4646;SDS011;2336;47.822;7.564;2023-06-22T11:55:10;11.23;;;6.70;;
4646;SDS011;2336;47.822;7.564;2023-06-22T11:57:37;14.17;;;8.67;;
4646;SDS011;2336;47.822;7.564;2023-06-22T12:00:05;10.07;;;8.50;;
4646;SDS011;2336;47.822;7.564;2023-06-22T12:02:42;7.57;;;6.77;;
4646;SDS011;2336;47.822;7.564;2023-06-22T12:05:10;10.63;;;7.03;;
4646;SDS011;2336;47.822;7.564;2023-06-22T12:07:37;14.57;;;7.03;;
4646;SDS011;2336;47.822;7.564;2023-06-22T12:10:04;8.77;;;6.93;;
4646;SDS011;2336;47.822;7.564;2023-06-22T12:12:32;20.07;;;5.80;;
4646;SDS011;2336;47.822;7.564;2023-06-22T12:14:58;14.70;;;6.40;;
4646;SDS011;2336;47.822;7.564;2023-06-22T12:17:28;12.03;;;6.17;;
4646;SDS011;2336;47.822;7.564;2023-06-22T12:19:56;12.00;;;6.10;;
4646;SDS011;2336;47.822;7.564;2023-06-22T12:22:24;9.23;;;6.27;;
4646;SDS011;2336;47.822;7.564;2023-06-22T12:24:51;13.40;;;6.50;;
4646;SDS011;2336;47.822;7.564;2023-06-22T12:27:17;11.67;;;6.20;;
4646;SDS011;2336;47.822;7.564;2023-06-22T12:29:45;7.07;;;5.63;;
4646;SDS011;2336;47.822;7.564;2023-06-22T12:32:12;11.67;;;6.00;;
4646;SDS011;2336;47.822;7.564;2023-06-22T12:34:39;11.20;;;6.30;;
4646;SDS011;2336;47.822;7.564;2023-06-22T12:37:07;11.40;;;6.90;;
4646;SDS011;2336;47.822;7.564;2023-06-22T12:39:34;11.37;;;7.07;;
4646;SDS011;2336;47.822;7.564;2023-06-22T12:42:01;6.90;;;5.67;;
4646;SDS011;2336;47.822;7.564;2023-06-22T12:44:28;12.83;;;6.60;;
4646;SDS011;2336;47.822;7.564;2023-06-22T12:46:54;17.33;;;6.90;;
4646;SDS011;2336;47.822;7.564;2023-06-22T12:49:21;9.53;;;6.47;;
4646;SDS011;2336;47.822;7.564;2023-06-22T12:51:48;9.63;;;6.60;;
4646;SDS011;2336;47.822;7.564;2023-06-22T12:54:16;11.97;;;7.30;;
4646;SDS011;2336;47.822;7.564;2023-06-22T12:56:43;11.17;;;7.33;;
4646;SDS011;2336;47.822;7.564;2023-06-22T12:59:10;12.23;;;7.17;;
4646;SDS011;2336;47.822;7.564;2023-06-22T13:01:36;14.90;;;7.27;;
4646;SDS011;2336;47.822;7.564;2023-06-22T13:04:03;10.30;;;6.90;;
4646;SDS011;2336;47.822;7.564;2023-06-22T13:06:30;11.40;;;6.93;;
4646;SDS011;2336;47.822;7.564;2023-06-22T13:08:57;10.80;;;7.20;;
4646;SDS011;2336;47.822;7.564;2023-06-22T13:11:25;8.63;;;7.13;;
4646;SDS011;2336;47.822;7.564;2023-06-22T13:13:51;12.43;;;7.50;;
4646;SDS011;2336;47.822;7.564;2023-06-22T13:16:18;10.07;;;7.57;;
4646;SDS011;2336;47.822;7.564;2023-06-22T13:18:45;10.03;;;7.60;;
4646;SDS011;2336;47.822;7.564;2023-06-22T13:21:11;10.17;;;7.77;;
4646;SDS011;2336;47.822;7.564;2023-06-22T13:23:39;9.00;;;6.50;;
4646;SDS011;2336;47.822;7.564;2023-06-22T13:26:06;12.23;;;7.80;;
4646;SDS011;2336;47.822;7.564;2023-06-22T13:28:34;12.80;;;7.40;;
4646;SDS011;2336;47.822;7.564;2023-06-22T13:31:01;18.70;;;7.30;;
4646;SDS011;2336;47.822;7.564;2023-06-22T13:33:28;11.53;;;7.33;;
4646;SDS011;2336;47.822;7.564;2023-06-22T13:35:54;12.47;;;6.60;;
4646;SDS011;2336;47.822;7.564;2023-06-22T13:38:21;10.80;;;6.70;;
4646;SDS011;2336;47.822;7.564;2023-06-22T13:40:48;12.17;;;7.20;;
4646;SDS011;2336;47.822;7.564;2023-06-22T13:43:15;10.00;;;6.20;;
4646;SDS011;2336;47.822;7.564;2023-06-22T13:45:43;21.13;;;7.00;;
4646;SDS011;2336;47.822;7.564;2023-06-22T13:48:10;13.30;;;6.60;;
4646;SDS011;2336;47.822;7.564;2023-06-22T13:50:37;17.60;;;6.80;;
4646;SDS011;2336;47.822;7.564;2023-06-22T13:53:03;11.07;;;5.93;;
4646;SDS011;2336;47.822;7.564;2023-06-22T13:55:30;12.37;;;6.20;;
4646;SDS011;2336;47.822;7.564;2023-06-22T13:57:57;14.63;;;6.60;;
4646;SDS011;2336;47.822;7.564;2023-06-22T14:00:24;16.43;;;5.83;;
4646;SDS011;2336;47.822;7.564;2023-06-22T14:02:52;8.97;;;6.37;;
4646;SDS011;2336;47.822;7.564;2023-06-22T14:05:18;15.40;;;7.17;;
4646;SDS011;2336;47.822;7.564;2023-06-22T14:07:45;11.90;;;5.83;;
4646;SDS011;2336;47.822;7.564;2023-06-22T14:10:12;10.07;;;6.10;;
4646;SDS011;2336;47.822;7.564;2023-06-22T14:12:38;9.30;;;6.50;;
4646;SDS011;2336;47.822;7.564;2023-06-22T14:15:05;9.10;;;6.10;;
4646;SDS011;2336;47.822;7.564;2023-06-22T14:17:33;13.83;;;5.73;;
4646;SDS011;2336;47.822;7.564;2023-06-22T14:20:01;9.77;;;5.20;;
4646;SDS011;2336;47.822;7.564;2023-06-22T14:22:28;12.63;;;5.97;;
4646;SDS011;2336;47.822;7.564;2023-06-22T14:24:55;12.30;;;6.03;;
4646;SDS011;2336;47.822;7.564;2023-06-22T14:27:22;8.80;;;5.40;;
4646;SDS011;2336;47.822;7.564;2023-06-22T14:29:49;17.03;;;5.90;;
4646;SDS011;2336;47.822;7.564;2023-06-22T14:32:16;8.30;;;4.80;;
4646;SDS011;2336;47.822;7.564;2023-06-22T14:34:43;13.57;;;5.80;;
4646;SDS011;2336;47.822;7.564;2023-06-22T14:37:11;9.90;;;5.93;;
4646;SDS011;2336;47.822;7.564;2023-06-22T14:39:38;19.47;;;5.83;;
4646;SDS011;2336;47.822;7.564;2023-06-22T14:42:05;7.97;;;5.80;;
4646;SDS011;2336;47.822;7.564;2023-06-22T14:44:32;11.73;;;5.50;;
4646;SDS011;2336;47.822;7.564;2023-06-22T14:46:59;14.90;;;5.30;;
4646;SDS011;2336;47.822;7.564;2023-06-22T14:49:25;18.53;;;6.23;;
4646;SDS011;2336;47.822;7.564;2023-06-22T14:51:52;12.57;;;5.80;;
4646;SDS011;2336;47.822;7.564;2023-06-22T14:54:20;7.60;;;6.13;;
4646;SDS011;2336;47.822;7.564;2023-06-22T14:56:47;11.57;;;6.10;;
4646;SDS011;2336;47.822;7.564;2023-06-22T14:59:14;10.33;;;5.70;;
4646;SDS011;2336;47.822;7.564;2023-06-22T15:01:41;10.90;;;5.77;;